sensor_id;sensor_type;location;lat;lon;timestamp;temperature;humidity
8778;DHT22;4425;50.872;4.712;2022-11-20T00:01:15;4.20;99.90
8778;DHT22;4425;50.872;4.712;2022-11-20T00:03:48;4.20;99.90
8778;DHT22;4425;50.872;4.712;2022-11-20T00:06:18;4.20;99.90
8778;DHT22;4425;50.872;4.712;2022-11-20T00:08:48;4.10;99.90
8778;DHT22;4425;50.872;4.712;2022-11-20T00:11:18;4.20;99.90
8778;DHT22;4425;50.872;4.712;2022-11-20T00:13:48;4.40;99.90
8778;DHT22;4425;50.872;4.712;2022-11-20T00:16:18;4.20;99.90
8778;DHT22;4425;50.872;4.712;2022-11-20T00:18:48;4.20;99.90
8778;DHT22;4425;50.872;4.712;2022-11-20T00:21:17;4.20;99.90
8778;DHT22;4425;50.872;4.712;2022-11-20T00:23:45;4.20;99.90
8778;DHT22;4425;50.872;4.712;2022-11-20T00:26:14;4.20;99.90
8778;DHT22;4425;50.872;4.712;2022-11-20T00:28:44;4.20;99.90
8778;DHT22;4425;50.872;4.712;2022-11-20T00:31:14;4.20;99.90
8778;DHT22;4425;50.872;4.712;2022-11-20T00:33:43;4.40;99.90
8778;DHT22;4425;50.872;4.712;2022-11-20T00:36:17;4.30;99.90
8778;DHT22;4425;50.872;4.712;2022-11-20T00:38:46;4.30;99.90
8778;DHT22;4425;50.872;4.712;2022-11-20T00:41:16;4.40;99.90
8778;DHT22;4425;50.872;4.712;2022-11-20T00:43:43;4.30;99.90
8778;DHT22;4425;50.872;4.712;2022-11-20T00:46:13;4.40;99.90
8778;DHT22;4425;50.872;4.712;2022-11-20T00:48:41;4.40;99.90
8778;DHT22;4425;50.872;4.712;2022-11-20T00:51:09;4.40;99.90
8778;DHT22;4425;50.872;4.712;2022-11-20T00:53:39;4.40;99.90
8778;DHT22;4425;50.872;4.712;2022-11-20T00:56:10;4.30;99.90
8778;DHT22;4425;50.872;4.712;2022-11-20T00:58:38;4.30;99.90
8778;DHT22;4425;50.872;4.712;2022-11-20T01:01:08;4.20;99.90
8778;DHT22;4425;50.872;4.712;2022-11-20T01:03:36;4.20;99.90
8778;DHT22;4425;50.872;4.712;2022-11-20T01:06:05;4.20;99.90
8778;DHT22;4425;50.872;4.712;2022-11-20T01:08:34;4.20;99.90
8778;DHT22;4425;50.872;4.712;2022-11-20T01:11:06;4.30;99.90
8778;DHT22;4425;50.872;4.712;2022-11-20T01:13:33;4.30;99.90
8778;DHT22;4425;50.872;4.712;2022-11-20T01:16:11;4.30;99.90
8778;DHT22;4425;50.872;4.712;2022-11-20T01:18:42;4.40;99.90
8778;DHT22;4425;50.872;4.712;2022-11-20T01:21:11;4.40;99.90
8778;DHT22;4425;50.872;4.712;2022-11-20T01:23:42;4.40;99.90
8778;DHT22;4425;50.872;4.712;2022-11-20T01:26:12;4.40;99.90
8778;DHT22;4425;50.872;4.712;2022-11-20T01:28:40;4.40;99.90
8778;DHT22;4425;50.872;4.712;2022-11-20T01:31:12;4.30;99.90
8778;DHT22;4425;50.872;4.712;2022-11-20T01:33:42;4.30;99.90
8778;DHT22;4425;50.872;4.712;2022-11-20T01:36:11;4.30;99.90
8778;DHT22;4425;50.872;4.712;2022-11-20T01:38:40;4.30;99.90
8778;DHT22;4425;50.872;4.712;2022-11-20T01:41:10;4.30;99.90
8778;DHT22;4425;50.872;4.712;2022-11-20T01:43:57;4.30;99.90
8778;DHT22;4425;50.872;4.712;2022-11-20T01:46:25;4.30;99.90
8778;DHT22;4425;50.872;4.712;2022-11-20T01:48:57;4.30;99.90
8778;DHT22;4425;50.872;4.712;2022-11-20T01:51:29;4.40;99.90
8778;DHT22;4425;50.872;4.712;2022-11-20T01:54:04;4.40;99.90
8778;DHT22;4425;50.872;4.712;2022-11-20T01:56:52;4.50;99.90
8778;DHT22;4425;50.872;4.712;2022-11-20T01:59:20;4.70;99.90
8778;DHT22;4425;50.872;4.712;2022-11-20T02:01:48;4.60;99.90
8778;DHT22;4425;50.872;4.712;2022-11-20T02:04:16;4.60;99.90
8778;DHT22;4425;50.872;4.712;2022-11-20T02:06:48;4.60;99.90
8778;DHT22;4425;50.872;4.712;2022-11-20T02:09:20;4.60;99.90
8778;DHT22;4425;50.872;4.712;2022-11-20T02:11:54;4.60;99.90
8778;DHT22;4425;50.872;4.712;2022-11-20T02:14:26;4.80;99.90
8778;DHT22;4425;50.872;4.712;2022-11-20T02:16:55;4.60;99.90
8778;DHT22;4425;50.872;4.712;2022-11-20T02:19:24;4.50;99.90
8778;DHT22;4425;50.872;4.712;2022-11-20T02:21:59;4.60;99.90
8778;DHT22;4425;50.872;4.712;2022-11-20T02:24:35;4.60;99.90
8778;DHT22;4425;50.872;4.712;2022-11-20T02:27:13;4.60;99.90
8778;DHT22;4425;50.872;4.712;2022-11-20T02:29:48;4.70;99.90
8778;DHT22;4425;50.872;4.712;2022-11-20T02:32:23;4.60;99.90
8778;DHT22;4425;50.872;4.712;2022-11-20T02:34:52;4.60;99.90
8778;DHT22;4425;50.872;4.712;2022-11-20T02:37:21;4.60;99.90
8778;DHT22;4425;50.872;4.712;2022-11-20T02:39:52;4.60;99.90
8778;DHT22;4425;50.872;4.712;2022-11-20T02:42:20;4.70;99.90
8778;DHT22;4425;50.872;4.712;2022-11-20T02:44:53;4.60;99.90
8778;DHT22;4425;50.872;4.712;2022-11-20T02:47:20;4.60;99.90
8778;DHT22;4425;50.872;4.712;2022-11-20T02:49:48;4.60;99.90
8778;DHT22;4425;50.872;4.712;2022-11-20T02:52:19;4.60;99.90
8778;DHT22;4425;50.872;4.712;2022-11-20T02:54:56;4.60;99.90
8778;DHT22;4425;50.872;4.712;2022-11-20T02:57:24;4.60;99.90
8778;DHT22;4425;50.872;4.712;2022-11-20T02:59:52;4.60;99.90
8778;DHT22;4425;50.872;4.712;2022-11-20T03:02:23;4.50;99.90
8778;DHT22;4425;50.872;4.712;2022-11-20T03:04:50;4.50;99.90
8778;DHT22;4425;50.872;4.712;2022-11-20T03:07:18;4.60;99.90
8778;DHT22;4425;50.872;4.712;2022-11-20T03:09:59;4.50;99.90
8778;DHT22;4425;50.872;4.712;2022-11-20T03:12:29;4.50;99.90
8778;DHT22;4425;50.872;4.712;2022-11-20T03:14:57;4.60;99.90
8778;DHT22;4425;50.872;4.712;2022-11-20T03:17:30;4.60;99.90
8778;DHT22;4425;50.872;4.712;2022-11-20T03:19:59;4.50;99.90
8778;DHT22;4425;50.872;4.712;2022-11-20T03:22:28;4.60;99.90
8778;DHT22;4425;50.872;4.712;2022-11-20T03:25:15;4.50;99.90
8778;DHT22;4425;50.872;4.712;2022-11-20T03:27:44;4.50;99.90
8778;DHT22;4425;50.872;4.712;2022-11-20T03:30:13;4.50;99.90
8778;DHT22;4425;50.872;4.712;2022-11-20T03:32:42;4.50;99.90
8778;DHT22;4425;50.872;4.712;2022-11-20T03:35:11;4.60;99.90
8778;DHT22;4425;50.872;4.712;2022-11-20T03:37:53;4.50;99.90
8778;DHT22;4425;50.872;4.712;2022-11-20T03:40:25;4.60;99.90
8778;DHT22;4425;50.872;4.712;2022-11-20T03:43:00;4.60;99.90
8778;DHT22;4425;50.872;4.712;2022-11-20T03:45:29;4.60;99.90
8778;DHT22;4425;50.872;4.712;2022-11-20T03:48:00;4.60;99.90
8778;DHT22;4425;50.872;4.712;2022-11-20T03:50:28;4.60;99.90
8778;DHT22;4425;50.872;4.712;2022-11-20T03:52:57;4.60;99.90
8778;DHT22;4425;50.872;4.712;2022-11-20T03:55:27;4.60;99.90
8778;DHT22;4425;50.872;4.712;2022-11-20T03:57:55;4.60;99.90
8778;DHT22;4425;50.872;4.712;2022-11-20T04:00:26;4.60;99.90
8778;DHT22;4425;50.872;4.712;2022-11-20T04:03:02;4.60;99.90
8778;DHT22;4425;50.872;4.712;2022-11-20T04:05:33;4.70;99.90
8778;DHT22;4425;50.872;4.712;2022-11-20T04:08:04;4.70;99.90
8778;DHT22;4425;50.872;4.712;2022-11-20T04:10:40;4.70;99.90
8778;DHT22;4425;50.872;4.712;2022-11-20T04:13:09;4.70;99.90
8778;DHT22;4425;50.872;4.712;2022-11-20T04:15:37;4.70;99.90
8778;DHT22;4425;50.872;4.712;2022-11-20T04:18:04;4.70;99.90
8778;DHT22;4425;50.872;4.712;2022-11-20T04:20:32;4.80;99.90
8778;DHT22;4425;50.872;4.712;2022-11-20T04:22:59;4.80;99.90
8778;DHT22;4425;50.872;4.712;2022-11-20T04:25:27;4.80;99.90
8778;DHT22;4425;50.872;4.712;2022-11-20T04:27:59;4.80;99.90
8778;DHT22;4425;50.872;4.712;2022-11-20T04:30:28;4.70;99.90
8778;DHT22;4425;50.872;4.712;2022-11-20T04:32:56;4.80;99.90
8778;DHT22;4425;50.872;4.712;2022-11-20T04:35:23;4.80;99.90
8778;DHT22;4425;50.872;4.712;2022-11-20T04:37:51;4.70;99.90
8778;DHT22;4425;50.872;4.712;2022-11-20T04:40:19;4.70;99.90
8778;DHT22;4425;50.872;4.712;2022-11-20T04:42:47;4.80;99.90
8778;DHT22;4425;50.872;4.712;2022-11-20T04:45:16;4.70;99.90
8778;DHT22;4425;50.872;4.712;2022-11-20T04:47:43;4.70;99.90
8778;DHT22;4425;50.872;4.712;2022-11-20T04:50:11;4.70;99.90
8778;DHT22;4425;50.872;4.712;2022-11-20T04:52:41;4.70;99.90
8778;DHT22;4425;50.872;4.712;2022-11-20T04:55:08;4.70;99.90
8778;DHT22;4425;50.872;4.712;2022-11-20T04:57:38;4.70;99.90
8778;DHT22;4425;50.872;4.712;2022-11-20T05:00:08;4.70;99.90
8778;DHT22;4425;50.872;4.712;2022-11-20T05:02:54;4.60;99.90
8778;DHT22;4425;50.872;4.712;2022-11-20T05:05:23;4.60;99.90
8778;DHT22;4425;50.872;4.712;2022-11-20T05:07:54;4.60;99.90
8778;DHT22;4425;50.872;4.712;2022-11-20T05:10:22;4.50;99.90
8778;DHT22;4425;50.872;4.712;2022-11-20T05:12:50;4.50;99.90
8778;DHT22;4425;50.872;4.712;2022-11-20T05:15:17;4.40;99.90
8778;DHT22;4425;50.872;4.712;2022-11-20T05:17:54;4.40;99.90
8778;DHT22;4425;50.872;4.712;2022-11-20T05:20:22;4.40;99.90
8778;DHT22;4425;50.872;4.712;2022-11-20T05:22:50;4.40;99.90
8778;DHT22;4425;50.872;4.712;2022-11-20T05:25:18;4.50;99.90
8778;DHT22;4425;50.872;4.712;2022-11-20T05:27:47;4.40;99.90
8778;DHT22;4425;50.872;4.712;2022-11-20T05:30:17;4.40;99.90
8778;DHT22;4425;50.872;4.712;2022-11-20T05:32:57;4.40;99.90
8778;DHT22;4425;50.872;4.712;2022-11-20T05:35:32;4.40;99.90
8778;DHT22;4425;50.872;4.712;2022-11-20T05:38:05;4.40;99.90
8778;DHT22;4425;50.872;4.712;2022-11-20T05:40:39;4.50;99.90
8778;DHT22;4425;50.872;4.712;2022-11-20T05:43:20;4.50;99.90
8778;DHT22;4425;50.872;4.712;2022-11-20T05:46:18;4.50;99.90
8778;DHT22;4425;50.872;4.712;2022-11-20T05:49:00;4.60;99.90
8778;DHT22;4425;50.872;4.712;2022-11-20T05:51:41;4.60;99.90
8778;DHT22;4425;50.872;4.712;2022-11-20T05:54:18;4.50;99.90
8778;DHT22;4425;50.872;4.712;2022-11-20T05:56:59;4.50;99.90
8778;DHT22;4425;50.872;4.712;2022-11-20T05:59:31;4.50;99.90
8778;DHT22;4425;50.872;4.712;2022-11-20T06:02:01;4.50;99.90
8778;DHT22;4425;50.872;4.712;2022-11-20T06:04:31;4.50;99.90
8778;DHT22;4425;50.872;4.712;2022-11-20T06:07:01;4.50;99.90
8778;DHT22;4425;50.872;4.712;2022-11-20T06:09:36;4.50;99.90
8778;DHT22;4425;50.872;4.712;2022-11-20T06:12:11;4.50;99.90
8778;DHT22;4425;50.872;4.712;2022-11-20T06:14:42;4.50;99.90
8778;DHT22;4425;50.872;4.712;2022-11-20T06:17:10;4.40;99.90
8778;DHT22;4425;50.872;4.712;2022-11-20T06:19:38;4.40;99.90
8778;DHT22;4425;50.872;4.712;2022-11-20T06:22:08;4.40;99.90
8778;DHT22;4425;50.872;4.712;2022-11-20T06:24:36;4.50;99.90
8778;DHT22;4425;50.872;4.712;2022-11-20T06:27:10;4.40;99.90
8778;DHT22;4425;50.872;4.712;2022-11-20T06:29:40;4.40;99.90
8778;DHT22;4425;50.872;4.712;2022-11-20T06:32:14;4.40;99.90
8778;DHT22;4425;50.872;4.712;2022-11-20T06:34:48;4.40;99.90
8778;DHT22;4425;50.872;4.712;2022-11-20T06:37:16;4.40;99.90
8778;DHT22;4425;50.872;4.712;2022-11-20T06:39:49;4.40;99.90
8778;DHT22;4425;50.872;4.712;2022-11-20T06:42:20;4.40;99.90
8778;DHT22;4425;50.872;4.712;2022-11-20T06:44:50;4.40;99.90
8778;DHT22;4425;50.872;4.712;2022-11-20T06:47:19;4.40;99.90
8778;DHT22;4425;50.872;4.712;2022-11-20T06:49:50;4.40;99.90
8778;DHT22;4425;50.872;4.712;2022-11-20T06:52:20;4.40;99.90
8778;DHT22;4425;50.872;4.712;2022-11-20T06:54:51;4.40;99.90
8778;DHT22;4425;50.872;4.712;2022-11-20T06:57:26;4.40;99.90
8778;DHT22;4425;50.872;4.712;2022-11-20T06:59:56;4.50;99.90
8778;DHT22;4425;50.872;4.712;2022-11-20T07:02:35;4.50;99.90
8778;DHT22;4425;50.872;4.712;2022-11-20T07:05:07;4.60;99.90
8778;DHT22;4425;50.872;4.712;2022-11-20T07:07:35;4.40;99.90
8778;DHT22;4425;50.872;4.712;2022-11-20T07:10:15;4.50;99.90
8778;DHT22;4425;50.872;4.712;2022-11-20T07:12:49;4.30;99.90
8778;DHT22;4425;50.872;4.712;2022-11-20T07:15:17;4.50;99.90
8778;DHT22;4425;50.872;4.712;2022-11-20T07:17:49;4.50;99.90
8778;DHT22;4425;50.872;4.712;2022-11-20T07:20:29;4.50;99.90
8778;DHT22;4425;50.872;4.712;2022-11-20T07:23:00;4.50;99.90
8778;DHT22;4425;50.872;4.712;2022-11-20T07:25:28;4.60;99.90
8778;DHT22;4425;50.872;4.712;2022-11-20T07:27:57;4.60;99.90
8778;DHT22;4425;50.872;4.712;2022-11-20T07:30:27;4.60;99.90
8778;DHT22;4425;50.872;4.712;2022-11-20T07:32:56;4.60;99.90
8778;DHT22;4425;50.872;4.712;2022-11-20T07:35:25;4.50;99.90
8778;DHT22;4425;50.872;4.712;2022-11-20T07:37:55;4.70;99.90
8778;DHT22;4425;50.872;4.712;2022-11-20T07:40:25;4.70;99.90
8778;DHT22;4425;50.872;4.712;2022-11-20T07:42:55;4.70;99.90
8778;DHT22;4425;50.872;4.712;2022-11-20T07:45:25;4.70;99.90
8778;DHT22;4425;50.872;4.712;2022-11-20T07:47:53;4.80;99.90
8778;DHT22;4425;50.872;4.712;2022-11-20T07:50:20;4.80;99.90
8778;DHT22;4425;50.872;4.712;2022-11-20T07:53:00;4.80;99.90
8778;DHT22;4425;50.872;4.712;2022-11-20T07:55:32;4.90;99.90
8778;DHT22;4425;50.872;4.712;2022-11-20T07:58:02;4.90;99.90
8778;DHT22;4425;50.872;4.712;2022-11-20T08:00:30;4.90;99.90
8778;DHT22;4425;50.872;4.712;2022-11-20T08:03:02;4.90;99.90
8778;DHT22;4425;50.872;4.712;2022-11-20T08:05:31;4.90;99.90
8778;DHT22;4425;50.872;4.712;2022-11-20T08:08:20;5.00;99.90
8778;DHT22;4425;50.872;4.712;2022-11-20T08:10:49;5.10;99.90
8778;DHT22;4425;50.872;4.712;2022-11-20T08:13:16;5.10;99.90
8778;DHT22;4425;50.872;4.712;2022-11-20T08:16:06;5.30;99.90
8778;DHT22;4425;50.872;4.712;2022-11-20T08:18:49;5.30;99.90
8778;DHT22;4425;50.872;4.712;2022-11-20T08:21:17;5.30;99.90
8778;DHT22;4425;50.872;4.712;2022-11-20T08:23:59;5.30;99.90
8778;DHT22;4425;50.872;4.712;2022-11-20T08:26:28;5.40;99.90
8778;DHT22;4425;50.872;4.712;2022-11-20T08:29:06;5.40;99.90
8778;DHT22;4425;50.872;4.712;2022-11-20T08:31:39;5.40;99.90
8778;DHT22;4425;50.872;4.712;2022-11-20T08:34:09;5.40;99.90
8778;DHT22;4425;50.872;4.712;2022-11-20T08:36:37;5.50;99.90
8778;DHT22;4425;50.872;4.712;2022-11-20T08:39:11;5.50;99.90
8778;DHT22;4425;50.872;4.712;2022-11-20T08:41:43;5.50;99.90
8778;DHT22;4425;50.872;4.712;2022-11-20T08:44:19;5.60;99.90
8778;DHT22;4425;50.872;4.712;2022-11-20T08:46:52;5.70;99.90
8778;DHT22;4425;50.872;4.712;2022-11-20T08:49:23;5.80;99.90
8778;DHT22;4425;50.872;4.712;2022-11-20T08:52:12;5.70;99.90
8778;DHT22;4425;50.872;4.712;2022-11-20T08:54:43;5.80;99.90
8778;DHT22;4425;50.872;4.712;2022-11-20T08:57:14;5.90;99.90
8778;DHT22;4425;50.872;4.712;2022-11-20T08:59:46;5.90;99.90
8778;DHT22;4425;50.872;4.712;2022-11-20T09:02:13;5.90;99.90
8778;DHT22;4425;50.872;4.712;2022-11-20T09:04:44;6.00;99.90
8778;DHT22;4425;50.872;4.712;2022-11-20T09:07:21;6.00;99.90
8778;DHT22;4425;50.872;4.712;2022-11-20T09:09:51;6.10;99.90
8778;DHT22;4425;50.872;4.712;2022-11-20T09:12:49;6.10;99.90
8778;DHT22;4425;50.872;4.712;2022-11-20T09:15:48;6.10;99.90
8778;DHT22;4425;50.872;4.712;2022-11-20T09:18:39;6.10;99.90
8778;DHT22;4425;50.872;4.712;2022-11-20T09:21:11;6.20;99.90
8778;DHT22;4425;50.872;4.712;2022-11-20T09:23:54;6.20;99.90
8778;DHT22;4425;50.872;4.712;2022-11-20T09:26:23;6.30;99.90
8778;DHT22;4425;50.872;4.712;2022-11-20T09:28:53;6.30;99.90
8778;DHT22;4425;50.872;4.712;2022-11-20T09:31:24;6.30;99.90
8778;DHT22;4425;50.872;4.712;2022-11-20T09:33:59;6.30;99.90
8778;DHT22;4425;50.872;4.712;2022-11-20T09:36:27;6.40;99.90
8778;DHT22;4425;50.872;4.712;2022-11-20T09:38:55;6.40;99.90
8778;DHT22;4425;50.872;4.712;2022-11-20T09:41:58;6.50;99.90
8778;DHT22;4425;50.872;4.712;2022-11-20T09:45:01;6.50;99.90
8778;DHT22;4425;50.872;4.712;2022-11-20T09:47:43;6.60;99.90
8778;DHT22;4425;50.872;4.712;2022-11-20T09:50:32;6.60;99.90
8778;DHT22;4425;50.872;4.712;2022-11-20T09:53:12;6.80;99.90
8778;DHT22;4425;50.872;4.712;2022-11-20T09:55:43;6.80;99.90
8778;DHT22;4425;50.872;4.712;2022-11-20T09:58:34;6.80;99.90
8778;DHT22;4425;50.872;4.712;2022-11-20T10:01:11;6.90;99.90
8778;DHT22;4425;50.872;4.712;2022-11-20T10:03:48;6.90;99.90
8778;DHT22;4425;50.872;4.712;2022-11-20T10:06:21;6.90;99.90
8778;DHT22;4425;50.872;4.712;2022-11-20T10:08:58;6.90;99.90
8778;DHT22;4425;50.872;4.712;2022-11-20T10:11:37;7.00;99.90
8778;DHT22;4425;50.872;4.712;2022-11-20T10:14:23;7.00;99.90
8778;DHT22;4425;50.872;4.712;2022-11-20T10:17:05;7.20;99.90
8778;DHT22;4425;50.872;4.712;2022-11-20T10:19:50;7.20;99.90
8778;DHT22;4425;50.872;4.712;2022-11-20T10:22:42;7.20;99.90
8778;DHT22;4425;50.872;4.712;2022-11-20T10:25:20;7.30;99.90
8778;DHT22;4425;50.872;4.712;2022-11-20T10:28:14;7.40;99.90
8778;DHT22;4425;50.872;4.712;2022-11-20T10:31:17;7.40;99.90
8778;DHT22;4425;50.872;4.712;2022-11-20T10:34:22;7.50;99.90
8778;DHT22;4425;50.872;4.712;2022-11-20T10:37:25;7.50;99.90
8778;DHT22;4425;50.872;4.712;2022-11-20T10:40:25;7.60;99.90
8778;DHT22;4425;50.872;4.712;2022-11-20T10:43:28;7.60;99.90
8778;DHT22;4425;50.872;4.712;2022-11-20T10:46:05;7.60;99.90
8778;DHT22;4425;50.872;4.712;2022-11-20T10:48:50;7.70;99.90
8778;DHT22;4425;50.872;4.712;2022-11-20T10:51:30;7.80;99.90
8778;DHT22;4425;50.872;4.712;2022-11-20T10:54:12;7.90;99.90
8778;DHT22;4425;50.872;4.712;2022-11-20T10:56:47;7.90;99.90
8778;DHT22;4425;50.872;4.712;2022-11-20T11:02:18;8.10;99.90
8778;DHT22;4425;50.872;4.712;2022-11-20T11:04:57;8.20;99.90
8778;DHT22;4425;50.872;4.712;2022-11-20T11:07:33;8.30;99.90
8778;DHT22;4425;50.872;4.712;2022-11-20T11:10:30;8.40;99.90
8778;DHT22;4425;50.872;4.712;2022-11-20T11:13:05;8.50;99.90
8778;DHT22;4425;50.872;4.712;2022-11-20T11:15:38;8.60;99.90
8778;DHT22;4425;50.872;4.712;2022-11-20T11:18:09;8.60;99.90
8778;DHT22;4425;50.872;4.712;2022-11-20T11:20:49;8.70;99.90
8778;DHT22;4425;50.872;4.712;2022-11-20T11:23:58;8.70;99.90
8778;DHT22;4425;50.872;4.712;2022-11-20T11:26:26;8.70;99.90
8778;DHT22;4425;50.872;4.712;2022-11-20T11:29:18;8.80;99.90
8778;DHT22;4425;50.872;4.712;2022-11-20T11:32:03;8.80;99.90
8778;DHT22;4425;50.872;4.712;2022-11-20T11:34:59;8.90;99.90
8778;DHT22;4425;50.872;4.712;2022-11-20T11:37:47;8.90;99.90
8778;DHT22;4425;50.872;4.712;2022-11-20T11:40:26;9.00;99.90
8778;DHT22;4425;50.872;4.712;2022-11-20T11:43:17;9.00;99.90
8778;DHT22;4425;50.872;4.712;2022-11-20T11:46:36;9.00;99.90
8778;DHT22;4425;50.872;4.712;2022-11-20T11:49:16;9.00;99.90
8778;DHT22;4425;50.872;4.712;2022-11-20T11:52:02;9.00;99.90
8778;DHT22;4425;50.872;4.712;2022-11-20T11:54:38;9.00;99.90
8778;DHT22;4425;50.872;4.712;2022-11-20T11:57:20;9.00;99.90
8778;DHT22;4425;50.872;4.712;2022-11-20T12:00:01;9.00;99.90
8778;DHT22;4425;50.872;4.712;2022-11-20T12:02:37;9.00;99.90
8778;DHT22;4425;50.872;4.712;2022-11-20T12:05:16;9.10;99.90
8778;DHT22;4425;50.872;4.712;2022-11-20T12:07:47;9.20;99.90
8778;DHT22;4425;50.872;4.712;2022-11-20T12:10:48;9.20;99.90
8778;DHT22;4425;50.872;4.712;2022-11-20T12:13:35;9.20;99.90
8778;DHT22;4425;50.872;4.712;2022-11-20T12:16:10;9.10;99.90
8778;DHT22;4425;50.872;4.712;2022-11-20T12:18:39;9.10;99.90
8778;DHT22;4425;50.872;4.712;2022-11-20T12:21:20;9.20;99.90
8778;DHT22;4425;50.872;4.712;2022-11-20T12:24:49;9.00;99.90
8778;DHT22;4425;50.872;4.712;2022-11-20T12:27:47;8.90;99.90
8778;DHT22;4425;50.872;4.712;2022-11-20T12:30:24;8.80;99.90
8778;DHT22;4425;50.872;4.712;2022-11-20T12:33:18;8.80;99.90
8778;DHT22;4425;50.872;4.712;2022-11-20T12:36:11;8.70;99.90
8778;DHT22;4425;50.872;4.712;2022-11-20T12:38:53;8.70;99.90
8778;DHT22;4425;50.872;4.712;2022-11-20T12:41:40;8.60;99.90
8778;DHT22;4425;50.872;4.712;2022-11-20T12:44:54;8.50;99.90
8778;DHT22;4425;50.872;4.712;2022-11-20T12:47:49;8.50;99.90
8778;DHT22;4425;50.872;4.712;2022-11-20T12:50:29;8.50;99.90
8778;DHT22;4425;50.872;4.712;2022-11-20T12:53:37;8.40;99.90
8778;DHT22;4425;50.872;4.712;2022-11-20T12:56:30;8.30;99.90
8778;DHT22;4425;50.872;4.712;2022-11-20T13:03:21;8.20;99.90
8778;DHT22;4425;50.872;4.712;2022-11-20T13:06:10;8.20;99.90
8778;DHT22;4425;50.872;4.712;2022-11-20T13:09:06;8.20;99.90
8778;DHT22;4425;50.872;4.712;2022-11-20T13:12:28;8.30;99.90
8778;DHT22;4425;50.872;4.712;2022-11-20T13:15:33;8.20;99.90
8778;DHT22;4425;50.872;4.712;2022-11-20T13:21:38;8.20;99.90
8778;DHT22;4425;50.872;4.712;2022-11-20T13:24:31;8.20;99.90
8778;DHT22;4425;50.872;4.712;2022-11-20T13:27:20;8.20;99.90
8778;DHT22;4425;50.872;4.712;2022-11-20T13:30:25;8.20;99.90
8778;DHT22;4425;50.872;4.712;2022-11-20T13:37:37;8.10;99.90
8778;DHT22;4425;50.872;4.712;2022-11-20T14:10:27;8.00;99.90
8778;DHT22;4425;50.872;4.712;2022-11-20T14:12:57;7.90;99.90
8778;DHT22;4425;50.872;4.712;2022-11-20T14:16:09;8.00;99.90
8778;DHT22;4425;50.872;4.712;2022-11-20T14:19:30;8.00;99.90
8778;DHT22;4425;50.872;4.712;2022-11-20T14:22:19;8.00;99.90
8778;DHT22;4425;50.872;4.712;2022-11-20T14:25:04;8.00;99.90
8778;DHT22;4425;50.872;4.712;2022-11-20T14:39:51;8.10;99.90
8778;DHT22;4425;50.872;4.712;2022-11-20T14:42:43;8.00;99.90
8778;DHT22;4425;50.872;4.712;2022-11-20T14:45:29;8.10;99.90
8778;DHT22;4425;50.872;4.712;2022-11-20T14:48:11;8.10;99.90
8778;DHT22;4425;50.872;4.712;2022-11-20T14:50:42;8.10;99.90
8778;DHT22;4425;50.872;4.712;2022-11-20T14:53:23;8.20;99.90
8778;DHT22;4425;50.872;4.712;2022-11-20T14:56:02;8.20;99.90
8778;DHT22;4425;50.872;4.712;2022-11-20T14:58:37;8.20;99.90
8778;DHT22;4425;50.872;4.712;2022-11-20T15:01:07;8.20;99.90
8778;DHT22;4425;50.872;4.712;2022-11-20T15:03:35;8.20;99.90
8778;DHT22;4425;50.872;4.712;2022-11-20T15:06:03;8.20;99.90
8778;DHT22;4425;50.872;4.712;2022-11-20T15:08:37;8.30;99.90
8778;DHT22;4425;50.872;4.712;2022-11-20T15:20:45;8.30;99.90
8778;DHT22;4425;50.872;4.712;2022-11-20T15:23:14;8.30;99.90
8778;DHT22;4425;50.872;4.712;2022-11-20T15:25:49;8.30;99.90
8778;DHT22;4425;50.872;4.712;2022-11-20T15:28:31;8.30;99.90
8778;DHT22;4425;50.872;4.712;2022-11-20T15:31:01;8.40;99.90
8778;DHT22;4425;50.872;4.712;2022-11-20T15:33:35;8.40;99.90
8778;DHT22;4425;50.872;4.712;2022-11-20T15:36:22;8.40;99.90
8778;DHT22;4425;50.872;4.712;2022-11-20T15:38:50;8.40;99.90
8778;DHT22;4425;50.872;4.712;2022-11-20T15:41:18;8.40;99.90
8778;DHT22;4425;50.872;4.712;2022-11-20T15:43:56;8.50;99.90
8778;DHT22;4425;50.872;4.712;2022-11-20T15:46:27;8.40;99.90
8778;DHT22;4425;50.872;4.712;2022-11-20T15:48:57;8.50;99.90
8778;DHT22;4425;50.872;4.712;2022-11-20T15:51:32;8.80;99.90
8778;DHT22;4425;50.872;4.712;2022-11-20T15:54:05;8.60;99.90
8778;DHT22;4425;50.872;4.712;2022-11-20T15:56:37;8.70;99.90
8778;DHT22;4425;50.872;4.712;2022-11-20T15:59:07;8.70;99.90
8778;DHT22;4425;50.872;4.712;2022-11-20T16:01:48;8.70;99.90
8778;DHT22;4425;50.872;4.712;2022-11-20T16:04:20;8.80;99.90
8778;DHT22;4425;50.872;4.712;2022-11-20T16:10:18;8.80;99.90
8778;DHT22;4425;50.872;4.712;2022-11-20T16:12:47;8.80;99.90
8778;DHT22;4425;50.872;4.712;2022-11-20T16:15:32;8.70;99.90
8778;DHT22;4425;50.872;4.712;2022-11-20T16:18:20;8.80;99.90
8778;DHT22;4425;50.872;4.712;2022-11-20T16:20:55;8.70;99.90
8778;DHT22;4425;50.872;4.712;2022-11-20T16:23:24;8.70;99.90
8778;DHT22;4425;50.872;4.712;2022-11-20T16:26:15;8.80;99.90
8778;DHT22;4425;50.872;4.712;2022-11-20T16:29:07;8.70;99.90
8778;DHT22;4425;50.872;4.712;2022-11-20T16:34:36;8.70;99.90
8778;DHT22;4425;50.872;4.712;2022-11-20T16:37:06;8.70;99.90
8778;DHT22;4425;50.872;4.712;2022-11-20T16:39:34;8.60;99.90
8778;DHT22;4425;50.872;4.712;2022-11-20T16:42:12;8.60;99.90
8778;DHT22;4425;50.872;4.712;2022-11-20T16:44:42;8.50;99.90
8778;DHT22;4425;50.872;4.712;2022-11-20T16:47:15;8.60;99.90
8778;DHT22;4425;50.872;4.712;2022-11-20T16:49:52;8.50;99.90
8778;DHT22;4425;50.872;4.712;2022-11-20T16:52:30;8.50;99.90
8778;DHT22;4425;50.872;4.712;2022-11-20T16:54:59;8.50;99.90
8778;DHT22;4425;50.872;4.712;2022-11-20T16:57:35;8.60;99.90
8778;DHT22;4425;50.872;4.712;2022-11-20T17:00:19;8.60;99.90
8778;DHT22;4425;50.872;4.712;2022-11-20T17:02:58;8.70;99.90
8778;DHT22;4425;50.872;4.712;2022-11-20T17:05:30;8.70;99.90
8778;DHT22;4425;50.872;4.712;2022-11-20T17:08:01;8.80;99.90
8778;DHT22;4425;50.872;4.712;2022-11-20T17:10:39;8.80;99.90
8778;DHT22;4425;50.872;4.712;2022-11-20T17:13:24;8.80;99.90
8778;DHT22;4425;50.872;4.712;2022-11-20T17:16:01;8.80;99.90
8778;DHT22;4425;50.872;4.712;2022-11-20T17:18:30;8.80;99.90
8778;DHT22;4425;50.872;4.712;2022-11-20T17:21:00;8.80;99.90
8778;DHT22;4425;50.872;4.712;2022-11-20T17:23:30;8.80;99.90
8778;DHT22;4425;50.872;4.712;2022-11-20T17:26:03;8.80;99.90
8778;DHT22;4425;50.872;4.712;2022-11-20T17:28:40;8.80;99.90
8778;DHT22;4425;50.872;4.712;2022-11-20T17:31:09;8.80;99.90
8778;DHT22;4425;50.872;4.712;2022-11-20T17:33:40;8.80;99.90
8778;DHT22;4425;50.872;4.712;2022-11-20T17:36:09;8.70;99.90
8778;DHT22;4425;50.872;4.712;2022-11-20T17:38:40;8.70;99.90
8778;DHT22;4425;50.872;4.712;2022-11-20T17:41:10;8.80;99.90
8778;DHT22;4425;50.872;4.712;2022-11-20T17:43:40;8.70;99.90
8778;DHT22;4425;50.872;4.712;2022-11-20T17:46:12;8.70;99.90
8778;DHT22;4425;50.872;4.712;2022-11-20T17:48:58;8.60;99.90
8778;DHT22;4425;50.872;4.712;2022-11-20T17:51:28;8.60;99.90
8778;DHT22;4425;50.872;4.712;2022-11-20T17:54:04;8.50;99.90
8778;DHT22;4425;50.872;4.712;2022-11-20T17:56:49;8.40;99.90
8778;DHT22;4425;50.872;4.712;2022-11-20T17:59:37;8.40;99.90
8778;DHT22;4425;50.872;4.712;2022-11-20T18:02:08;8.20;99.90
8778;DHT22;4425;50.872;4.712;2022-11-20T18:04:36;8.30;99.90
8778;DHT22;4425;50.872;4.712;2022-11-20T18:07:09;8.20;99.90
8778;DHT22;4425;50.872;4.712;2022-11-20T18:09:54;8.40;99.90
8778;DHT22;4425;50.872;4.712;2022-11-20T18:12:24;8.50;99.90
8778;DHT22;4425;50.872;4.712;2022-11-20T18:14:54;8.50;99.90
8778;DHT22;4425;50.872;4.712;2022-11-20T18:17:27;8.50;99.90
8778;DHT22;4425;50.872;4.712;2022-11-20T18:19:55;8.50;99.90
8778;DHT22;4425;50.872;4.712;2022-11-20T18:22:23;8.50;99.90
8778;DHT22;4425;50.872;4.712;2022-11-20T18:24:54;8.50;99.90
8778;DHT22;4425;50.872;4.712;2022-11-20T18:27:33;8.50;99.90